Terminal Aerodrome Forecast
Issued by NWS

Home | Current Version | Previous Version | Text Only | Print | Product List | Glossary On
Versions: 1 2 3 4 5 6 7 8 9 10 11 12
000
FTUS44 KBMX 300500
TAFANB
TAF
KANB 300533Z 3006/3106 00000KT P6SM BKN150
     FM301500 16007KT P6SM BKN100
     FM301900 20008KT P6SM VCTS SCT050CB BKN150
     FM310100 VRB03KT P6SM BKN050=

USA.gov is the U.S. government's official web portal to all federal, state and local government web resources and services.